Dernières infos :  

11/05/2017  Mise à jour des tableaux d'analyses décadaires : rubrique climatologie
03/05/2017 Mise en ligne de la synthèse climatologique d'Avril 2017 : 
CLIQUEZ ICI
01/05/2017  Mise à jour des tableaux d'analyses décadaires, mensuelles et annuelles : rubrique climatologie   

Si l'entête du tableau ne s'affiche pas correctement, => actualisez la page (F5 avec Internet Explorer, Chrome...).
Utilisez l'ascenseur sur la droite des lignes du tableau pour faire défiler verticalement les jours du mois.

TABLEAU DES DONNEES COMPLETES NOAA DE DECEMBRE 2015

DATE TEMPERATURE
sous abri
TEMPARATURE 
au sol
VENT  et  Indice de Refroidissement Eolien  PRECIPITATIONS (en mm/m2)
et Intensité
PRESSION ATMOSPHERIQUE (en hPa) HUMIDITE de l'AIR RADIATIONS SOLAIRES (en W/m2)
Mini Moy. Maxi Mini Moy. Maxi Moyen Rafale I.R.E.
Minii
Précip. jour Cumul mois Intensité Maxi Mini Moy. Maxi Mini Moy. Maxi Pic maxi du jour Total jour
01/12/2015 2.3° 8.9° 12.3° -0.6° 7.8° 12.8° 2.3km/h dir SSE 9.7km/h dir SE 2.4° 0.2 0.2 1030.9 1032.3 1033.6 74% 86.2% 94% 142 7 830
02/12/2015 -1.2° 3.3° 11.8° -3.3° 2.2° 16.1° 1.8km/h dir ESE 8km/h dir E -1.2° 0 0.2 1029 1029.9 1031.1 71% 90% 96% 385 21 586
03/12/2015 -1.9° 2.1° 8.2° -3.9° 1.7° 13.3° 4km/h dir ESE 25.7km/h dir S -3.6° 0.4 0.6 1028.6 1030.1 1031.3 84% 93.6% 97% 371 15 236
04/12/2015 3.7° 8.1° 10.3° 0.6° 10° 5.1km/h dir S 30.6km/h dir S 3.7° 0 0.6 1029.9 1033.2 1035.2 79% 86.1% 94% 104 4 305
05/12/2015 2.3° 5.4° 9.3° 4.9° 8.3° 3.5km/h dir S 22.5km/h dir SSE 1.9° 0.2 0.8 1030.5 1032.9 1034.7 90% 95.2% 97% 209 8 467
06/12/2015 8.4° 11.2° 15.1° 10.5° 18.9° 9km/h dir S 32.2km/h dir S 7.2° 0.2 1 1029.2 1030.4 1031.8 73% 85.3% 93% 367 20 143
07/12/2015 6.3° 10.1° 15.9° 2.2° 8.6° 20° 5.1km/h dir SSE 24.1km/h dir SSO 5.3° 0 1 1030.1 1031.4 1032.6 63% 83.7% 95% 362 19 804
08/12/2015 5.3° 10.2° 14.8° 1.1° 9.1° 18.9° 6.3km/h dir S 32.2km/h dir S 4.7° 2.6 3.6 2.8mm/h 1030.5 1031.4 1033.2 69% 82.3% 94% 364 18 951
09/12/2015 1.3° 7.2° 10.1° -1.7° 5.9° 14.4° 4km/h dir NNO 22.5km/h dir O 0.3° 5 8.6 38.6mm/h 1033.1 1037.3 1039.4 81% 92.1% 96% 438 12 642
10/12/2015 0.2° 2.4° -1.1° 2.2° 4.4° 3.2km/h dir SSE 14.5km/h dir SE -0.3° 0.2 8.8 1033.2 1035.5 1038 94% 95.9% 96% 121 5 944
11/12/2015 -1.5° 4.7° 12.6° -2.8° 15.6° 2.9km/h dir SE 17.7km/h dir SE -2.1° 0.2 9 1031.4 1032.8 1034.5 67% 89.1% 97% 373 19 558
12/12/2015 0.7° 6.4° 12.2° -1.7° 5.2° 18.3° 3.1km/h dir NO 16.1km/h dir SE 0.3° 0 9 1023.9 1027.3 1031.4 70% 86.9% 96% 526 17 690
13/12/2015 -1.2° 2.1° 8.4° -2.8° 1.2° 10.6° 1.6km/h dir SE 8km/h dir SE -1.8° 0.2 9.2 1021.5 1022.8 1024 80% 92.6% 96% 353 10 174
14/12/2015 0.9° 6.5° 13.5° -0.6° 6.2° 16.7° 5.1km/h dir SSE 35.4km/h dir S 0.7° 0 9.2 1020.6 1021.7 1023.8 73% 87.6% 96% 355 17 995
15/12/2015 8.4° 10.9° 13.7° 5.6° 10.2° 17.2° 7.6km/h dir S 35.4km/h dir S 7.6° 5 14.2 6.6mm/h 1023.5 1024.9 1028.2 70% 80.7% 93% 392 15 249
16/12/2015 5.6° 9.9° 14.5° 3.3° 16.7° 3.2km/h dir S 16.1km/h dir SE 4.5° 4 18.2 10.6mm/h 1027.8 1029.5 1030.8 80% 91.8% 96% 376 14 752
17/12/2015 3.1° 8.7° 14.6° 1.1° 7.8° 18.3° 5.8km/h dir S 29km/h dir SSE 2.7° 0.2 18.4 1025.2 1027.6 1030.4 75% 89.2% 97% 334 18 137
18/12/2015 6.9° 10.5° 13.8° 3.3° 9.1° 15.6° 3.9km/h dir S 20.9km/h dir S 6.7° 0 18.4 1025.3 1026 1027.6 79% 87.8% 95% 271 10 555
19/12/2015 5.1° 8.9° 13° 1.7° 7.7° 16.1° 6.6km/h dir S 37km/h dir SSE 4.2° 0.2 18.6 1021.5 1024 1025.8 79% 89.3% 96% 330 16 521
20/12/2015 10.8° 12.9° 16.2° 9.4° 12.4° 17.8° 15.4km/h dir S 45.1km/h dir S 8.4° 0 18.6 1021.1 1022.9 1025.7 70% 79.5% 84% 432 17 035
21/12/2015 8.4° 11.1° 13.7° 10.1° 13.9° 7.1km/h dir S 38.6km/h dir S 8.1° 12.6 31.2 10.8mm/h 1025.3 1029.7 1033.1 75% 88.2% 96% 390 9 372
22/12/2015 9.8° 11.6° 14.6° 8.9° 11.1° 18.3° 7.6km/h dir S 35.4km/h dir S 9.3° 0 31.2 1029 1031 1033 75% 86.1% 93% 357 17 473
23/12/2015 7.7° 11.2° 14.3° 9.9° 15.6° 5km/h dir SSE 20.9km/h dir SSE 7.7° 0 31.2 1027.7 1029.6 1031.6 78% 84.8% 93% 255 11 271
24/12/2015 7.8° 12.7° 15.9° 6.1° 12° 17.2° 13.5km/h dir S 54.7km/h dir SSO 7.8° 0 31.2 1025.3 1026.8 1029.5 67% 77.9% 95% 406 13 891
25/12/2015 8.2° 11.4° 15.6° 3.9° 9.7° 18.9° 6.1km/h dir SSE 27.4km/h dir S 7.8° 0 31.2 1029.4 1031.3 1032.8 70% 82.8% 91% 350 18 683
26/12/2015 8.8° 11.4° 14.9° 6.7° 10.6° 18.9° 8.4km/h dir S 30.6km/h dir SE 8.4° 0 31.2 1029.6 1031.1 1032.7 71% 82.1% 92% 352 19 351
27/12/2015 4.2° 8.8° 14.1° 1.1° 7.3° 17.8° 5.6km/h dir S 30.6km/h dir S 3.6° 0 31.2 1029.8 1030.9 1032.5 69% 84.5% 95% 367 19 091
28/12/2015 7.3° 10.9° 14.3° 10.2° 17.2° 12.6km/h dir S 46.7km/h dir SSE 5.8° 0 31.2 1023.8 1026.6 1030.1 67% 76.7% 88% 367 20 028
29/12/2015 2.7° 8.6° 12.7° 0.6° 7.1° 14.4° 6km/h dir S 35.4km/h dir S 2.2° 0.6 31.8 1024.6 1028 1030.7 73% 84.2% 95% 299 7 383
30/12/2015 -0.1° 3.1° 10.1° -1.7° 2.6° 9.4° 4.8km/h dir S 41.8km/h dir SSE -1.2° 0.4 32.2 1019.8 1025.2 1030.3 84% 94.2% 97% 132 5 942
31/12/2015 5.6° 9.2° 11.9° 2.2° 8.4° 11.1° 7.2km/h dir S 48.3km/h dir S 5.5° 6.2 38.4 3.6mm/h 1019.9 1024.2 1026.1 71% 89.2% 96% 162 3 091

RETOUR ACCUEIL


Date de création : 10/01/2016 : 08:39
Catégorie : ARCHIVES 2002 à 2016 - ANNEES 2010 à 2019 - ANNEE 2015 - DECEMBRE 2015
Page lue 752 fois


Réactions à cet article

Personne n'a encore laissé de commentaire.
Soyez donc le premier !